Time;durP1;ratioP1;P1;durP2;ratioP2;P2;SDS_P1;SDS_P2;PMS_P1;PMS_P2;Temp;Humidity;BMP_temperature;BMP_pressure;BME280_temperature;BME280_humidity;BME280_pressure;Samples;Min_cycle;Max_cycle;Signal;HPM_P1;HPM_P2
2021/08/07 00:00:25;;;;;;;2.70;1.13;;;;;;;15.54;88.39;97881.91;5062470;28;20107;-66
2021/08/07 00:02:51;;;;;;;5.30;1.27;;;;;;;15.41;89.27;97873.69;5045492;28;20029;-66
2021/08/07 00:05:16;;;;;;;3.88;1.35;;;;;;;15.38;89.88;97865.94;5046183;28;21320;-66
2021/08/07 00:07:41;;;;;;;6.28;1.77;;;;;;;15.35;90.23;97871.34;5059304;28;20037;-66
2021/08/07 00:10:07;;;;;;;2.22;1.30;;;;;;;15.33;90.50;97881.16;5064567;28;20024;-66
2021/08/07 00:12:35;;;;;;;4.20;1.60;;;;;;;15.21;90.25;97871.16;5064378;28;20028;-66
2021/08/07 00:15:00;;;;;;;8.95;3.05;;;;;;;15.20;90.74;97880.06;5063946;28;20025;-66
2021/08/07 00:17:26;;;;;;;2.92;1.00;;;;;;;15.17;91.15;97872.25;5045303;28;20085;-66
2021/08/07 00:19:51;;;;;;;2.30;1.17;;;;;;;15.09;91.57;97875.28;5044080;28;20021;-66
2021/08/07 00:22:17;;;;;;;4.72;1.48;;;;;;;15.07;91.58;97901.00;5045183;28;20021;-66
2021/08/07 00:24:42;;;;;;;3.45;1.35;;;;;;;15.03;91.37;97878.22;5045131;28;20044;-66
2021/08/07 00:27:08;;;;;;;4.45;1.30;;;;;;;14.94;91.70;97880.50;5061786;28;20091;-66
2021/08/07 00:29:35;;;;;;;7.97;1.73;;;;;;;14.97;92.28;97880.34;5052540;28;20088;-66
2021/08/07 00:32:02;;;;;;;6.18;1.30;;;;;;;15.05;92.14;97883.47;5053861;28;20059;-66
2021/08/07 00:34:28;;;;;;;5.15;1.60;;;;;;;15.06;92.25;97877.22;5044947;28;20021;-66
2021/08/07 00:36:53;;;;;;;5.32;1.58;;;;;;;14.93;92.52;97878.75;5044937;28;20028;-66
2021/08/07 00:39:19;;;;;;;4.32;1.58;;;;;;;14.86;92.98;97862.31;5063831;28;20017;-66
2021/08/07 00:41:44;;;;;;;9.10;2.15;;;;;;;14.93;92.85;97857.56;5057515;28;20037;-66
2021/08/07 00:44:10;;;;;;;6.18;1.48;;;;;;;14.86;92.81;97857.00;5044783;28;20021;-66
2021/08/07 00:46:35;;;;;;;3.50;1.60;;;;;;;14.89;92.71;97877.19;5044618;28;20157;-66
2021/08/07 00:49:01;;;;;;;6.07;1.67;;;;;;;14.84;92.88;97858.03;5060322;28;20089;-66
2021/08/07 00:51:26;;;;;;;5.88;1.75;;;;;;;14.76;93.36;97852.22;5061267;28;20037;-66
2021/08/07 00:53:51;;;;;;;2.63;1.50;;;;;;;14.81;93.26;97850.22;5063731;28;20066;-66
2021/08/07 00:56:17;;;;;;;5.63;1.45;;;;;;;14.74;93.08;97849.66;5064005;28;20024;-66
2021/08/07 00:58:42;;;;;;;10.00;1.65;;;;;;;14.64;93.12;97844.84;5055658;28;20093;-66
2021/08/07 01:01:13;;;;;;;3.83;1.80;;;;;;;14.65;93.11;97850.09;5049730;28;20275;-66
2021/08/07 01:03:46;;;;;;;6.20;1.40;;;;;;;14.54;93.32;97870.06;5063543;28;20265;-66
2021/08/07 01:06:17;;;;;;;1.90;1.30;;;;;;;14.55;93.29;97851.47;5058508;28;20057;-66
2021/08/07 01:09:09;;;;;;;6.90;1.77;;;;;;;14.42;93.35;97862.69;5044421;28;20220;-66
2021/08/07 01:11:41;;;;;;;6.80;1.42;;;;;;;14.36;93.93;97847.09;5055606;28;20056;-66
2021/08/07 01:14:08;;;;;;;6.90;1.33;;;;;;;14.37;94.51;97859.41;5063650;28;20017;-66
2021/08/07 01:16:39;;;;;;;8.52;1.75;;;;;;;14.41;94.12;97855.69;5063623;28;20253;-66
2021/08/07 01:19:13;;;;;;;5.22;1.52;;;;;;;14.42;93.95;97846.81;5062209;28;20024;-66
2021/08/07 01:21:45;;;;;;;6.95;1.52;;;;;;;14.44;94.06;97844.97;5064112;28;20020;-66
2021/08/07 01:24:29;;;;;;;10.65;1.67;;;;;;;14.42;94.42;97841.50;5064128;28;20021;-66
2021/08/07 01:26:55;;;;;;;5.20;1.73;;;;;;;14.42;95.22;97846.81;5063991;28;20219;-66
2021/08/07 01:29:22;;;;;;;5.10;1.60;;;;;;;14.51;94.59;97836.66;5063997;28;20324;-66
2021/08/07 01:31:50;;;;;;;7.05;1.80;;;;;;;14.57;94.51;97838.16;5044832;28;20376;-66
2021/08/07 01:34:17;;;;;;;5.38;1.50;;;;;;;14.55;94.08;97843.50;5043999;28;20036;-66
2021/08/07 01:36:45;;;;;;;7.45;1.50;;;;;;;14.55;94.36;97855.88;5043985;28;20045;-66
2021/08/07 01:39:10;;;;;;;5.80;1.55;;;;;;;14.64;94.10;97847.50;5043930;28;20064;-66
2021/08/07 01:41:36;;;;;;;4.68;1.35;;;;;;;14.64;93.69;97837.78;5043928;28;20025;-66
2021/08/07 01:44:01;;;;;;;6.95;1.55;;;;;;;14.58;93.53;97831.91;5043979;28;20063;-66
2021/08/07 01:46:38;;;;;;;2.78;1.40;;;;;;;14.61;93.98;97842.34;5043819;28;20018;-66
2021/08/07 01:49:13;;;;;;;4.57;1.63;;;;;;;14.67;93.92;97837.63;5043890;28;20093;-66
2021/08/07 01:52:03;;;;;;;3.22;1.23;;;;;;;14.65;94.00;97843.94;5044094;28;20032;-66
2021/08/07 01:54:34;;;;;;;1.77;1.08;;;;;;;14.61;94.32;97831.75;5043836;28;20022;-66
2021/08/07 01:57:06;;;;;;;7.30;1.75;;;;;;;14.64;94.38;97842.22;5043785;28;20028;-66
2021/08/07 01:59:34;;;;;;;2.85;1.45;;;;;;;14.47;93.70;97828.94;5043588;28;20026;-66
2021/08/07 02:02:00;;;;;;;4.18;1.50;;;;;;;14.52;93.82;97833.06;5043696;28;20036;-66
2021/08/07 02:04:27;;;;;;;3.97;1.52;;;;;;;14.55;94.46;97837.34;5042611;28;20025;-66
2021/08/07 02:06:55;;;;;;;2.22;1.40;;;;;;;14.56;94.61;97823.19;5043596;28;20328;-66
2021/08/07 02:09:21;;;;;;;3.17;1.33;;;;;;;14.63;94.33;97840.50;5043646;28;20025;-66
2021/08/07 02:11:47;;;;;;;4.22;1.52;;;;;;;14.63;94.44;97838.72;5043657;28;20041;-66
2021/08/07 02:14:15;;;;;;;5.70;1.13;;;;;;;14.69;94.44;97834.91;5050488;28;20031;-66
2021/08/07 02:16:44;;;;;;;8.57;1.70;;;;;;;14.66;94.34;97824.47;5062058;28;20025;-66
2021/08/07 02:19:10;;;;;;;3.45;1.42;;;;;;;14.66;94.65;97824.47;5059802;28;20019;-66
2021/08/07 02:21:37;;;;;;;4.68;1.45;;;;;;;14.71;94.41;97827.72;5043603;28;20028;-66
2021/08/07 02:24:03;;;;;;;4.88;3.05;;;;;;;14.67;94.52;97819.09;5043518;28;20028;-66
2021/08/07 02:26:29;;;;;;;5.22;2.00;;;;;;;14.71;94.70;97811.84;5043412;28;20021;-66
2021/08/07 02:28:55;;;;;;;2.20;1.40;;;;;;;14.79;94.16;97828.25;5043482;28;20092;-66
2021/08/07 02:31:21;;;;;;;3.80;1.33;;;;;;;14.79;93.79;97830.88;5043505;28;20060;-66
2021/08/07 02:33:47;;;;;;;2.33;1.20;;;;;;;14.80;93.77;97816.69;5043504;28;20025;-66
2021/08/07 02:36:14;;;;;;;5.20;1.98;;;;;;;14.77;93.83;97811.53;5044113;28;20029;-66
2021/08/07 02:38:41;;;;;;;3.53;2.00;;;;;;;14.74;93.90;97807.25;5047118;28;20027;-66
2021/08/07 02:41:07;;;;;;;5.88;1.50;;;;;;;14.72;93.93;97808.28;5047095;28;20048;-66
2021/08/07 02:43:33;;;;;;;3.40;1.65;;;;;;;14.73;94.06;97810.84;5047054;28;20031;-66
2021/08/07 02:46:00;;;;;;;4.97;1.50;;;;;;;14.78;93.84;97802.69;5047010;28;20036;-66
2021/08/07 02:48:27;;;;;;;2.97;1.83;;;;;;;14.79;94.08;97804.41;5045723;28;20400;-66
2021/08/07 02:50:53;;;;;;;6.63;2.05;;;;;;;14.83;94.16;97816.56;5046896;28;20029;-66
2021/08/07 02:53:20;;;;;;;5.15;1.65;;;;;;;14.87;93.83;97813.69;5046865;28;20021;-66
2021/08/07 02:55:45;;;;;;;1.42;1.10;;;;;;;14.78;93.93;97810.63;5063800;28;20025;-66
2021/08/07 02:58:11;;;;;;;5.90;1.77;;;;;;;14.65;94.19;97849.25;5066745;28;20020;-66
2021/08/07 03:00:38;;;;;;;3.58;1.55;;;;;;;14.66;94.49;97824.47;5066559;28;20039;-66
2021/08/07 03:03:04;;;;;;;6.00;1.60;;;;;;;14.61;94.65;97827.34;5066355;28;20059;-66
2021/08/07 03:05:30;;;;;;;6.68;2.00;;;;;;;14.61;95.01;97810.56;5066341;28;20029;-66
2021/08/07 03:07:56;;;;;;;5.28;1.45;;;;;;;14.60;95.12;97792.97;5066582;28;20193;-66
2021/08/07 03:10:22;;;;;;;7.55;1.90;;;;;;;14.71;94.82;97811.84;5066544;28;20033;-66
2021/08/07 03:12:49;;;;;;;7.25;1.60;;;;;;;14.75;94.61;97808.13;5066498;28;20083;-66
2021/08/07 03:15:15;;;;;;;8.85;1.40;;;;;;;14.79;94.41;97809.69;5065907;28;20035;-66
2021/08/07 03:17:41;;;;;;;7.60;2.05;;;;;;;14.79;94.57;97807.03;5065864;28;20032;-66
2021/08/07 03:20:08;;;;;;;2.90;1.55;;;;;;;14.88;94.14;97801.28;5066384;28;20024;-66
2021/08/07 03:22:34;;;;;;;6.63;1.60;;;;;;;14.90;94.44;97800.28;5066328;28;20062;-66
2021/08/07 03:25:00;;;;;;;8.32;1.60;;;;;;;14.86;94.88;97801.38;5066274;28;20324;-66
2021/08/07 03:27:25;;;;;;;3.58;1.60;;;;;;;14.90;94.71;97805.56;5066136;28;20027;-66
2021/08/07 03:29:50;;;;;;;4.22;1.40;;;;;;;14.91;94.78;97819.69;5066249;28;20088;-66
2021/08/07 03:32:17;;;;;;;6.20;1.60;;;;;;;14.92;94.71;97802.84;5066150;28;20025;-66
2021/08/07 03:34:43;;;;;;;6.45;1.83;;;;;;;14.94;94.62;97801.00;5058406;28;20049;-66
2021/08/07 03:37:08;;;;;;;4.65;1.70;;;;;;;14.94;94.37;97798.34;5046078;28;20067;-66
2021/08/07 03:39:34;;;;;;;9.57;1.88;;;;;;;14.93;94.33;97791.31;5046055;28;20021;-66
2021/08/07 03:41:59;;;;;;;7.40;1.58;;;;;;;14.97;93.98;97798.19;5045969;28;20033;-66
2021/08/07 03:44:25;;;;;;;3.53;1.65;;;;;;;14.92;94.43;97784.31;5064397;28;20044;-66
2021/08/07 03:46:50;;;;;;;4.03;1.42;;;;;;;14.87;94.25;97783.66;5065791;28;20017;-66
2021/08/07 03:49:16;;;;;;;10.05;1.90;;;;;;;14.84;94.43;97778.53;5064686;28;20372;-66
2021/08/07 03:51:41;;;;;;;4.90;1.27;;;;;;;14.88;94.04;97766.84;5065218;28;20044;-66
2021/08/07 03:54:06;;;;;;;8.13;1.30;;;;;;;14.90;93.80;97778.22;5065714;28;20220;-66
2021/08/07 03:56:32;;;;;;;2.80;1.33;;;;;;;14.93;93.73;97780.72;5064517;28;20048;-66
2021/08/07 03:58:57;;;;;;;8.73;1.83;;;;;;;14.92;94.31;97773.72;5065502;28;20029;-66
2021/08/07 04:01:23;;;;;;;4.55;1.65;;;;;;;14.91;94.50;97772.00;5064011;28;20332;-66
2021/08/07 04:03:48;;;;;;;4.43;1.50;;;;;;;14.92;93.99;97773.72;5045523;28;20029;-66
2021/08/07 04:06:14;;;;;;;7.78;1.80;;;;;;;14.91;94.03;97782.59;5045459;28;20048;-66
2021/08/07 04:08:39;;;;;;;6.40;1.60;;;;;;;14.87;94.50;97759.81;5045481;28;20022;-66
2021/08/07 04:11:05;;;;;;;2.22;1.40;;;;;;;14.85;95.01;97767.88;5058792;28;20032;-66
2021/08/07 04:13:31;;;;;;;4.53;1.65;;;;;;;14.84;95.06;97766.13;5046271;28;20088;-66
2021/08/07 04:15:57;;;;;;;3.80;1.55;;;;;;;14.88;94.74;97764.19;5045324;28;20084;-66
2021/08/07 04:18:22;;;;;;;15.10;1.90;;;;;;;14.86;94.60;97763.41;5044213;28;20216;-66
2021/08/07 04:20:48;;;;;;;5.85;1.88;;;;;;;14.86;94.71;97816.41;5045265;28;20044;-66
2021/08/07 04:23:13;;;;;;;2.97;1.60;;;;;;;14.94;94.48;97840.75;5058192;28;20088;-66
2021/08/07 04:25:38;;;;;;;7.53;2.05;;;;;;;14.90;94.63;97849.75;5065099;28;20024;-66
2021/08/07 04:28:06;;;;;;;3.97;1.50;;;;;;;14.90;94.95;97866.50;5064956;28;20025;-66
2021/08/07 04:30:31;;;;;;;4.18;1.65;;;;;;;14.86;94.91;97874.69;5064731;28;20025;-66
2021/08/07 04:32:57;;;;;;;2.50;1.58;;;;;;;14.87;94.92;97908.19;5054330;28;20049;-66
2021/08/07 04:35:22;;;;;;;4.00;1.80;;;;;;;14.89;94.85;97924.88;5044955;28;20316;-66
2021/08/07 04:37:54;;;;;;;3.45;1.90;;;;;;;14.79;94.65;97936.84;5044905;28;20025;-66
2021/08/07 04:40:21;;;;;;;2.55;1.42;;;;;;;14.83;94.73;97957.84;5044949;28;20025;-66
2021/08/07 04:42:46;;;;;;;6.55;1.85;;;;;;;14.86;94.96;97965.63;5052941;28;20024;-66
2021/08/07 04:45:12;;;;;;;3.63;1.50;;;;;;;14.89;94.59;97965.50;5064737;28;20024;-66
2021/08/07 04:48:02;;;;;;;8.88;1.63;;;;;;;14.94;94.55;97991.78;5064643;28;20027;-66
2021/08/07 04:50:31;;;;;;;16.35;1.92;;;;;;;14.93;94.90;97987.38;5064656;28;20025;-66
2021/08/07 04:52:57;;;;;;;3.85;1.38;;;;;;;14.98;94.55;98002.16;5061773;28;20021;-66
2021/08/07 04:55:23;;;;;;;8.32;2.15;;;;;;;15.00;94.55;98010.03;5064526;28;20025;-66
2021/08/07 04:57:48;;;;;;;10.75;1.80;;;;;;;14.94;94.45;98018.28;5064479;28;20024;-66
2021/08/07 05:00:14;;;;;;;9.40;1.73;;;;;;;14.88;94.64;98037.09;5064012;28;20059;-66
2021/08/07 05:02:40;;;;;;;8.07;2.15;;;;;;;14.86;94.91;98054.84;5057761;28;20025;-66
2021/08/07 05:05:06;;;;;;;5.57;2.35;;;;;;;14.85;94.89;98061.09;5044432;28;20104;-66
2021/08/07 05:07:32;;;;;;;5.30;2.10;;;;;;;14.86;94.86;98070.75;5044321;28;20017;-66
2021/08/07 05:09:59;;;;;;;6.97;1.83;;;;;;;14.88;94.81;98096.25;5044402;28;20335;-66
2021/08/07 05:12:27;;;;;;;5.95;1.70;;;;;;;14.93;94.83;98103.97;5061112;28;20067;-66
2021/08/07 05:14:53;;;;;;;12.13;2.33;;;;;;;14.94;94.53;98111.03;5064245;28;20230;-66
2021/08/07 05:17:19;;;;;;;7.95;1.80;;;;;;;14.98;94.61;98128.50;5064207;28;20012;-66
2021/08/07 05:19:44;;;;;;;6.82;2.03;;;;;;;14.99;94.24;98141.69;5050114;28;20017;-66
2021/08/07 05:22:09;;;;;;;10.25;1.95;;;;;;;15.04;94.54;98155.56;5061607;28;20308;-66
2021/08/07 05:24:35;;;;;;;8.95;2.00;;;;;;;15.09;94.29;98156.25;5064110;28;20021;-66
2021/08/07 05:27:00;;;;;;;9.23;2.03;;;;;;;15.11;94.18;98166.78;5063964;28;20029;-66
2021/08/07 05:29:25;;;;;;;5.85;1.75;;;;;;;15.14;93.88;98193.16;5062867;28;20017;-65
2021/08/07 05:31:51;;;;;;;9.60;3.00;;;;;;;15.13;94.19;98199.38;5054465;28;20025;-65
2021/08/07 05:34:16;;;;;;;6.78;1.73;;;;;;;15.18;94.11;98208.84;5042864;28;20018;-65
2021/08/07 05:36:42;;;;;;;5.65;1.77;;;;;;;15.25;94.14;98221.84;5043992;28;20010;-65
2021/08/07 05:39:07;;;;;;;5.22;2.03;;;;;;;15.26;93.89;98240.34;5044009;28;20018;-65
2021/08/07 05:41:32;;;;;;;7.95;2.20;;;;;;;15.30;93.86;98246.34;5045670;28;20253;-65
2021/08/07 05:43:58;;;;;;;8.65;2.15;;;;;;;15.35;93.92;98224.03;5057583;28;20023;-65
2021/08/07 05:46:23;;;;;;;8.10;2.80;;;;;;;15.42;93.68;98256.44;5056948;28;20347;-65
2021/08/07 05:48:54;;;;;;;9.70;2.92;;;;;;;15.50;93.28;98247.22;5052708;28;20017;-65
2021/08/07 05:51:19;;;;;;;6.50;2.00;;;;;;;15.63;93.00;98245.72;5052568;28;20032;-65
2021/08/07 05:53:44;;;;;;;6.90;2.05;;;;;;;15.73;92.55;98265.63;5047832;28;20045;-65
2021/08/07 05:56:10;;;;;;;11.90;2.25;;;;;;;15.79;92.28;98219.38;5046472;28;20249;-66
2021/08/07 05:58:37;;;;;;;14.30;3.40;;;;;;;15.90;92.99;98217.06;5048281;28;20020;-69
2021/08/07 06:01:04;;;;;;;5.95;2.45;;;;;;;15.97;92.49;98219.34;5043608;28;20055;-69
2021/08/07 06:03:29;;;;;;;10.98;2.35;;;;;;;16.04;92.16;98204.84;5043660;28;20051;-69
2021/08/07 06:05:55;;;;;;;6.32;2.35;;;;;;;16.15;91.85;98205.22;5043688;28;20097;-69
2021/08/07 06:08:20;;;;;;;13.90;2.35;;;;;;;16.22;91.31;98198.66;5043621;28;20037;-66
2021/08/07 06:10:45;;;;;;;8.00;2.40;;;;;;;16.28;92.54;98197.50;5046758;28;20228;-67
2021/08/07 06:13:11;;;;;;;8.75;2.20;;;;;;;16.30;92.49;98185.84;5052639;28;20024;-65
2021/08/07 06:15:36;;;;;;;6.50;2.42;;;;;;;16.37;92.11;98187.31;5067535;28;20088;-65
2021/08/07 06:18:02;;;;;;;4.95;2.05;;;;;;;16.44;90.72;98172.81;5067534;28;20084;-65
2021/08/07 06:20:28;;;;;;;8.00;1.90;;;;;;;16.54;90.20;98174.06;5067533;28;20030;-65
2021/08/07 06:22:53;;;;;;;7.55;1.85;;;;;;;16.64;90.52;98170.00;5066952;28;20021;-65
2021/08/07 06:25:18;;;;;;;9.73;2.25;;;;;;;16.74;91.43;98171.25;5064823;28;20092;-65
2021/08/07 06:27:45;;;;;;;7.22;2.47;;;;;;;16.77;91.36;98160.44;5047309;28;20025;-65
2021/08/07 06:30:10;;;;;;;10.43;2.90;;;;;;;16.80;90.98;98176.25;5047326;28;20084;-65
2021/08/07 06:32:36;;;;;;;10.85;2.13;;;;;;;16.81;89.72;98162.00;5049068;28;20021;-65
2021/08/07 06:35:01;;;;;;;4.50;2.20;;;;;;;16.86;89.25;98164.44;5046106;28;20021;-65
2021/08/07 06:37:27;;;;;;;4.38;1.65;;;;;;;16.94;88.90;98157.81;5047200;28;20025;-65
2021/08/07 06:39:52;;;;;;;7.50;1.70;;;;;;;17.04;88.82;98153.72;5047143;28;20124;-65
2021/08/07 06:42:18;;;;;;;6.50;2.42;;;;;;;17.12;88.88;98145.34;5047101;28;20049;-65
2021/08/07 06:44:43;;;;;;;8.68;2.10;;;;;;;17.20;87.88;98151.97;5047041;28;20257;-65
2021/08/07 06:47:08;;;;;;;8.10;1.85;;;;;;;17.27;86.78;98159.63;5046970;28;20026;-65
2021/08/07 06:49:34;;;;;;;5.97;2.03;;;;;;;17.42;87.57;98158.78;5046954;28;20021;-65
2021/08/07 06:51:59;;;;;;;7.35;1.90;;;;;;;17.56;86.03;98156.28;5046920;28;20025;-65
2021/08/07 06:54:25;;;;;;;6.40;2.03;;;;;;;17.72;86.95;98175.78;5046900;28;20324;-65
2021/08/07 06:56:50;;;;;;;6.05;1.83;;;;;;;17.82;87.56;98123.75;5048020;28;20025;-65
2021/08/07 06:59:15;;;;;;;7.20;2.08;;;;;;;17.89;87.26;98127.78;5046791;28;20032;-65
2021/08/07 07:01:41;;;;;;;7.75;1.80;;;;;;;17.90;84.19;98129.47;5046648;28;20348;-65
2021/08/07 07:04:06;;;;;;;14.13;1.98;;;;;;;17.98;83.73;98121.94;5046635;28;20047;-65
2021/08/07 07:06:32;;;;;;;10.45;1.75;;;;;;;18.09;83.16;98108.84;5046631;28;20366;-65
2021/08/07 07:08:57;;;;;;;8.07;1.67;;;;;;;18.25;83.70;98099.03;5046628;28;20052;-65
2021/08/07 07:11:23;;;;;;;13.65;2.20;;;;;;;18.41;83.81;98107.88;5046941;28;20434;-65
2021/08/07 07:13:48;;;;;;;6.45;1.92;;;;;;;18.56;84.91;98113.16;5046535;28;20021;-65
2021/08/07 07:16:14;;;;;;;6.70;1.92;;;;;;;18.69;83.67;98115.94;5046503;28;20275;-65
2021/08/07 07:18:39;;;;;;;6.28;2.03;;;;;;;18.79;80.52;98111.78;5047968;28;20025;-65
2021/08/07 07:21:05;;;;;;;7.13;1.95;;;;;;;18.79;81.14;98107.31;5046414;28;20029;-65
2021/08/07 07:23:30;;;;;;;10.07;1.75;;;;;;;18.81;82.16;98243.22;5046190;28;20057;-65
2021/08/07 07:25:56;;;;;;;9.38;2.47;;;;;;;18.90;82.25;98152.00;5046326;28;20071;-66
2021/08/07 07:28:21;;;;;;;10.52;1.90;;;;;;;18.94;80.29;98116.19;5046207;28;20025;-66
2021/08/07 07:30:47;;;;;;;6.55;1.80;;;;;;;19.05;80.31;98119.06;5054530;28;20021;-65
2021/08/07 07:33:14;;;;;;;12.05;1.70;;;;;;;19.05;78.98;98109.25;5066167;28;20025;-65
2021/08/07 07:35:40;;;;;;;10.82;2.25;;;;;;;19.03;78.64;98089.81;5066086;28;20220;-65
2021/08/07 07:38:06;;;;;;;13.52;2.63;;;;;;;18.99;77.04;98090.09;5066010;28;20021;-65
2021/08/07 07:40:31;;;;;;;5.03;1.75;;;;;;;19.00;76.08;98083.81;5066013;28;20028;-65
2021/08/07 07:42:57;;;;;;;11.00;2.00;;;;;;;19.04;76.66;98117.34;5065991;28;20021;-65
2021/08/07 07:45:22;;;;;;;11.43;1.95;;;;;;;19.07;77.53;98101.16;5065949;28;20029;-65
2021/08/07 07:47:48;;;;;;;7.63;2.47;;;;;;;18.97;77.48;98084.00;5065811;28;20025;-65
2021/08/07 07:50:13;;;;;;;6.95;1.83;;;;;;;18.95;78.21;98077.88;5065826;28;20087;-65
2021/08/07 07:52:39;;;;;;;5.65;1.63;;;;;;;18.88;78.21;98089.88;5048434;28;20088;-65
2021/08/07 07:55:05;;;;;;;8.90;1.90;;;;;;;18.97;79.27;98062.66;5057537;28;20051;-65
2021/08/07 07:57:31;;;;;;;9.82;1.85;;;;;;;19.00;79.66;98068.66;5064508;28;20023;-66
2021/08/07 07:59:56;;;;;;;13.80;2.17;;;;;;;18.91;78.19;98053.22;5065392;28;20064;-65
2021/08/07 08:02:22;;;;;;;8.95;2.05;;;;;;;18.80;80.35;98049.50;5054490;28;20021;-65
2021/08/07 08:04:47;;;;;;;9.93;2.00;;;;;;;18.66;79.18;98047.69;5045532;28;20025;-65
2021/08/07 08:07:12;;;;;;;7.13;1.88;;;;;;;18.62;79.29;98055.97;5045473;28;20022;-65
2021/08/07 08:09:38;;;;;;;6.38;1.67;;;;;;;18.56;79.59;98056.31;5045483;28;20017;-65
2021/08/07 08:12:04;;;;;;;8.32;1.85;;;;;;;18.65;80.16;98066.44;5045422;28;20232;-65
2021/08/07 08:14:30;;;;;;;8.30;2.00;;;;;;;18.71;80.64;98058.94;5045367;28;20096;-65
2021/08/07 08:16:56;;;;;;;9.68;1.92;;;;;;;18.79;80.70;98058.44;5045322;28;20060;-65
2021/08/07 08:19:21;;;;;;;6.63;2.10;;;;;;;18.93;79.92;98050.47;5045328;28;20021;-65
2021/08/07 08:21:46;;;;;;;5.53;1.90;;;;;;;19.35;79.75;98053.16;5044691;28;20339;-65
2021/08/07 08:24:12;;;;;;;10.68;1.75;;;;;;;19.95;78.66;98065.22;5044216;28;20021;-65
2021/08/07 08:26:40;;;;;;;10.55;2.60;;;;;;;20.26;74.51;98064.94;5044120;28;20026;-65
2021/08/07 08:29:05;;;;;;;7.53;1.80;;;;;;;20.58;73.66;98066.28;5044670;28;20017;-65
2021/08/07 08:31:31;;;;;;;10.75;1.88;;;;;;;20.62;73.29;98066.91;5044155;28;20293;-65
2021/08/07 08:33:56;;;;;;;3.95;1.60;;;;;;;20.71;73.66;98069.81;5061244;28;20063;-65
2021/08/07 08:36:21;;;;;;;6.85;1.98;;;;;;;20.37;71.49;98041.00;5063596;28;20021;-65
2021/08/07 08:38:47;;;;;;;11.45;1.95;;;;;;;20.12;75.21;98034.75;5063942;28;20028;-65
2021/08/07 08:41:12;;;;;;;11.65;1.90;;;;;;;20.12;74.16;98032.91;5063916;28;20027;-65
2021/08/07 08:43:38;;;;;;;9.43;2.55;;;;;;;19.98;72.75;98003.56;5063876;28;20025;-65
2021/08/07 08:46:04;;;;;;;8.65;1.63;;;;;;;19.88;74.40;98013.16;5063810;28;20017;-65
2021/08/07 08:48:30;;;;;;;9.20;2.13;;;;;;;19.93;73.97;98029.72;5063260;28;20092;-65
2021/08/07 08:50:56;;;;;;;9.55;2.10;;;;;;;20.15;73.46;98193.03;5063740;28;20017;-65
2021/08/07 08:53:22;;;;;;;8.40;1.83;;;;;;;20.50;73.25;98084.63;5044250;28;20036;-64
2021/08/07 08:55:48;;;;;;;5.55;1.90;;;;;;;20.80;73.70;98071.00;5043684;28;20021;-65
2021/08/07 08:58:16;;;;;;;5.80;1.75;;;;;;;20.88;72.34;98041.91;5043919;28;20014;-65
2021/08/07 09:00:42;;;;;;;7.13;1.55;;;;;;;20.91;72.18;98034.50;5043458;28;20037;-65
2021/08/07 09:03:07;;;;;;;10.02;1.85;;;;;;;21.13;71.44;98042.78;5043096;28;20104;-65
2021/08/07 09:05:32;;;;;;;7.88;2.25;;;;;;;21.39;69.17;98026.69;5060955;28;20025;-65
2021/08/07 09:07:58;;;;;;;8.45;1.83;;;;;;;21.66;68.42;98030.00;5063375;28;20043;-65
2021/08/07 09:10:24;;;;;;;7.28;1.85;;;;;;;21.57;67.83;98041.41;5063392;28;20021;-65
2021/08/07 09:12:52;;;;;;;10.32;2.05;;;;;;;21.57;69.15;98020.00;5062807;28;20063;-65
2021/08/07 09:15:29;;;;;;;7.75;1.35;;;;;;;21.43;67.98;98028.16;5062864;28;20017;-65
2021/08/07 09:18:25;;;;;;;12.05;2.17;;;;;;;21.17;67.67;97996.09;5063320;28;20020;-65
2021/08/07 09:20:52;;;;;;;8.85;1.67;;;;;;;20.94;68.40;97983.50;5062903;28;20257;-65
2021/08/07 09:23:34;;;;;;;12.65;2.35;;;;;;;20.77;69.05;97986.47;5063168;28;20315;-66
2021/08/07 09:26:18;;;;;;;12.77;2.00;;;;;;;20.65;69.88;97976.63;5060589;28;20029;-66
2021/08/07 09:28:48;;;;;;;11.57;2.10;;;;;;;20.51;70.12;97966.06;5042752;28;20328;-67
2021/08/07 09:31:14;;;;;;;13.93;2.28;;;;;;;20.23;71.37;97947.53;5041964;28;20040;-67
2021/08/07 09:33:39;;;;;;;8.18;1.90;;;;;;;20.20;71.82;97928.19;5043128;28;20021;-66
2021/08/07 09:36:05;;;;;;;13.27;1.60;;;;;;;20.25;70.86;97926.91;5054172;28;20209;-66
2021/08/07 09:38:30;;;;;;;9.43;2.05;;;;;;;20.25;71.25;97924.22;5048387;28;20017;-67
2021/08/07 09:41:01;;;;;;;4.63;1.58;;;;;;;20.16;71.64;97940.91;5045254;28;20048;-66
2021/08/07 09:43:28;;;;;;;10.95;1.98;;;;;;;20.11;72.09;97918.94;5045108;28;20311;-66
2021/08/07 09:46:07;;;;;;;7.50;2.05;;;;;;;20.27;71.94;97916.97;5062010;28;20025;-66
2021/08/07 09:48:53;;;;;;;8.95;1.77;;;;;;;20.29;71.56;97919.53;5061661;28;20024;-66
2021/08/07 09:51:30;;;;;;;6.95;1.73;;;;;;;20.33;73.90;97915.69;5062912;28;20048;-66
2021/08/07 09:54:00;;;;;;;7.65;2.00;;;;;;;20.41;71.87;97916.84;5062457;28;20031;-66
2021/08/07 09:56:25;;;;;;;10.85;1.70;;;;;;;20.39;72.18;97918.78;5061645;28;20044;-66
2021/08/07 09:59:04;;;;;;;11.75;1.77;;;;;;;20.43;75.22;97932.78;5062833;28;20021;-66
2021/08/07 10:01:31;;;;;;;13.00;2.00;;;;;;;20.42;72.97;97937.28;5062677;28;20094;-66
2021/08/07 10:04:05;;;;;;;8.15;2.13;;;;;;;20.49;72.34;97943.06;5062645;28;20313;-66
2021/08/07 10:06:32;;;;;;;6.28;1.83;;;;;;;20.55;73.67;97938.16;5062219;28;20086;-66
2021/08/07 10:08:57;;;;;;;9.40;1.90;;;;;;;20.60;71.54;97933.31;5059714;28;20025;-66
2021/08/07 10:11:26;;;;;;;11.25;1.85;;;;;;;20.71;71.69;97960.16;5042770;28;20336;-66
2021/08/07 10:13:53;;;;;;;10.90;2.20;;;;;;;20.79;71.58;97936.41;5042686;28;20096;-66
2021/08/07 10:16:18;;;;;;;9.18;2.15;;;;;;;20.94;73.99;97937.16;5043791;28;20036;-66
2021/08/07 10:18:45;;;;;;;12.73;2.13;;;;;;;21.05;70.23;97932.75;5042703;28;20017;-66
2021/08/07 10:21:12;;;;;;;8.43;2.55;;;;;;;21.04;73.01;97940.91;5041077;28;20060;-66
2021/08/07 10:23:37;;;;;;;7.68;1.58;;;;;;;21.06;71.71;97934.47;5054229;28;20024;-66
2021/08/07 10:26:04;;;;;;;6.97;1.95;;;;;;;21.07;72.06;97940.66;5062521;28;20364;-66
2021/08/07 10:28:34;;;;;;;16.23;3.10;;;;;;;20.98;72.29;97925.28;5062432;28;20251;-66
2021/08/07 10:31:02;;;;;;;11.65;2.30;;;;;;;21.05;70.91;97924.75;5061961;28;20021;-66
2021/08/07 10:33:28;;;;;;;8.02;1.80;;;;;;;21.12;70.51;97928.69;5042133;28;20029;-66
2021/08/07 10:35:55;;;;;;;12.18;1.90;;;;;;;21.18;71.98;97922.88;5059885;28;20024;-67
2021/08/07 10:38:21;;;;;;;9.80;1.80;;;;;;;21.26;72.62;97931.19;5042468;28;20021;-66
2021/08/07 10:40:47;;;;;;;10.50;2.25;;;;;;;21.25;73.24;97939.31;5042485;28;20021;-66
2021/08/07 10:43:15;;;;;;;8.75;2.08;;;;;;;21.28;73.10;97939.09;5042440;28;20045;-66
2021/08/07 10:45:42;;;;;;;12.70;2.63;;;;;;;21.27;72.87;97937.41;5042229;28;20017;-66
2021/08/07 10:48:38;;;;;;;13.38;2.20;;;;;;;21.13;73.43;97927.69;5042242;28;20030;-66
2021/08/07 10:51:22;;;;;;;11.07;2.50;;;;;;;20.98;72.57;97910.06;5042419;28;20028;-66
2021/08/07 10:53:55;;;;;;;9.40;2.13;;;;;;;20.69;73.04;97905.94;5042378;28;20049;-66
2021/08/07 10:56:29;;;;;;;9.25;1.73;;;;;;;20.62;72.49;97883.25;5042384;28;20030;-66
2021/08/07 10:59:19;;;;;;;10.18;2.20;;;;;;;20.50;72.55;97897.50;5044975;28;20206;-66
2021/08/07 11:01:46;;;;;;;6.93;1.70;;;;;;;20.42;73.31;97889.19;5045494;28;20384;-66
2021/08/07 11:04:30;;;;;;;7.22;1.98;;;;;;;20.31;74.05;97881.03;5062285;28;20205;-66
2021/08/07 11:06:58;;;;;;;11.73;2.63;;;;;;;20.28;75.05;97880.41;5045734;28;20025;-66
2021/08/07 11:09:35;;;;;;;10.68;2.47;;;;;;;20.20;76.33;97866.72;5045750;28;20262;-65
2021/08/07 11:12:06;;;;;;;6.68;2.08;;;;;;;20.20;75.44;97872.94;5049564;28;20228;-65
2021/08/07 11:14:34;;;;;;;8.23;2.00;;;;;;;20.14;77.18;97856.47;5065612;28;20033;-65
2021/08/07 11:17:05;;;;;;;12.55;2.13;;;;;;;20.07;77.77;97839.97;5065546;28;20097;-65
2021/08/07 11:20:05;;;;;;;10.18;2.38;;;;;;;20.16;77.19;97844.72;5065541;28;20020;-65
2021/08/07 11:22:40;;;;;;;10.55;3.17;;;;;;;20.18;78.16;97850.78;5052298;28;20018;-65
2021/08/07 11:25:20;;;;;;;9.82;1.88;;;;;;;20.24;77.51;97846.84;5053278;28;20212;-66
2021/08/07 11:27:48;;;;;;;12.45;2.28;;;;;;;20.21;77.64;97842.56;5065301;28;20025;-65
2021/08/07 11:30:32;;;;;;;7.15;1.92;;;;;;;20.16;77.25;97842.06;5065313;28;20021;-65
2021/08/07 11:33:00;;;;;;;8.27;2.10;;;;;;;20.13;77.03;97844.94;5065232;28;20216;-65